Time;durP1;ratioP1;P1;durP2;ratioP2;P2;SDS_P1;SDS_P2;PMS_P1;PMS_P2;Temp;Humidity;BMP_temperature;BMP_pressure;BME280_temperature;BME280_humidity;BME280_pressure;Samples;Min_cycle;Max_cycle;Signal;HPM_P1;HPM_P2
2022/12/21 00:01:38;;;;;;;73.43;46.03;;;1.30;99.90;;;;;;5034582;28;20018;-84
2022/12/21 00:04:06;;;;;;;79.73;48.30;;;1.30;99.90;;;;;;5034836;28;20382;-85
2022/12/21 00:06:34;;;;;;;77.47;46.67;;;1.30;99.90;;;;;;5034646;28;20046;-84
2022/12/21 00:09:02;;;;;;;71.00;44.63;;;1.40;99.90;;;;;;5034648;28;20037;-85
2022/12/21 00:11:30;;;;;;;72.13;44.00;;;1.30;99.90;;;;;;5034943;28;20025;-84
2022/12/21 00:13:57;;;;;;;67.57;42.43;;;1.40;99.90;;;;;;5054234;28;20029;-85
2022/12/21 00:16:25;;;;;;;68.70;42.50;;;1.30;99.90;;;;;;5034898;28;20045;-84
2022/12/21 00:18:51;;;;;;;68.20;43.60;;;1.30;99.90;;;;;;5034335;28;20427;-85
2022/12/21 00:21:19;;;;;;;68.70;42.07;;;1.30;99.90;;;;;;5034436;28;20024;-84
2022/12/21 00:23:47;;;;;;;69.37;43.53;;;1.40;99.90;;;;;;5034077;28;20415;-84
2022/12/21 00:26:15;;;;;;;65.90;42.67;;;1.40;99.90;;;;;;5042362;28;20024;-85
2022/12/21 00:28:40;;;;;;;62.40;38.73;;;1.30;99.90;;;;;;5038420;28;20117;-85
2022/12/21 00:31:08;;;;;;;62.53;37.73;;;1.30;99.90;;;;;;5034475;28;20033;-85
2022/12/21 00:33:34;;;;;;;61.33;39.10;;;1.40;99.90;;;;;;5033996;28;20044;-84
2022/12/21 00:36:00;;;;;;;60.03;38.80;;;1.30;99.90;;;;;;5033979;28;20021;-84
2022/12/21 00:38:26;;;;;;;59.53;36.97;;;1.40;99.90;;;;;;5054415;28;20063;-85
2022/12/21 00:40:56;;;;;;;54.80;35.70;;;1.40;99.90;;;;;;5054529;28;20077;-84
2022/12/21 00:43:22;;;;;;;55.57;34.63;;;1.30;99.90;;;;;;5014276;28;20018;-84
2022/12/21 00:45:48;;;;;;;50.50;33.47;;;1.40;99.90;;;;;;5032410;28;20028;-85
2022/12/21 00:48:13;;;;;;;53.47;34.47;;;1.30;99.90;;;;;;5033063;28;20025;-85
2022/12/21 00:50:39;;;;;;;51.27;33.97;;;1.30;99.90;;;;;;5034680;28;20060;-85
2022/12/21 00:53:04;;;;;;;49.23;32.77;;;1.30;99.90;;;;;;5042264;28;20068;-85
2022/12/21 00:55:30;;;;;;;48.03;32.27;;;1.40;99.90;;;;;;5033549;28;20026;-85
2022/12/21 00:57:59;;;;;;;54.80;31.20;;;1.30;99.90;;;;;;5033035;28;20029;-85
2022/12/21 01:00:25;;;;;;;42.73;28.57;;;1.30;99.90;;;;;;5036994;28;20013;-84
2022/12/21 01:02:50;;;;;;;48.37;29.73;;;1.30;99.90;;;;;;5047609;28;20482;-84
2022/12/21 01:05:16;;;;;;;41.20;27.73;;;1.30;99.90;;;;;;5033301;28;20022;-85
2022/12/21 01:07:41;;;;;;;39.50;25.23;;;1.30;99.90;;;;;;5033145;28;20064;-85
2022/12/21 01:10:08;;;;;;;29.27;19.30;;;1.40;99.90;;;;;;5034830;28;20478;-85
2022/12/21 01:12:34;;;;;;;31.20;20.73;;;1.30;99.90;;;;;;5033416;28;20030;-85
2022/12/21 01:15:00;;;;;;;28.20;19.00;;;1.40;99.90;;;;;;5033205;28;20047;-83
2022/12/21 01:17:25;;;;;;;29.57;18.90;;;1.40;99.90;;;;;;5033487;28;20034;-84
2022/12/21 01:19:51;;;;;;;28.10;18.80;;;1.40;99.90;;;;;;5033433;28;20025;-85
2022/12/21 01:22:16;;;;;;;24.57;17.13;;;1.40;99.90;;;;;;5033093;28;20433;-85
2022/12/21 01:24:42;;;;;;;25.80;18.37;;;1.40;99.90;;;;;;5036846;28;20018;-85
2022/12/21 01:27:07;;;;;;;25.20;17.50;;;1.40;99.90;;;;;;5020486;28;20059;-85
2022/12/21 01:29:33;;;;;;;24.23;16.10;;;1.40;99.90;;;;;;5022554;28;20467;-85
2022/12/21 01:31:59;;;;;;;26.13;17.43;;;1.50;99.90;;;;;;5035385;28;20025;-85
2022/12/21 01:34:24;;;;;;;25.77;18.50;;;1.50;99.90;;;;;;5053151;28;20052;-85
2022/12/21 01:36:50;;;;;;;26.73;17.83;;;1.50;99.90;;;;;;5022423;28;20017;-85
2022/12/21 01:39:15;;;;;;;21.07;15.60;;;1.50;99.90;;;;;;5053112;28;20108;-85
2022/12/21 01:41:41;;;;;;;24.20;15.97;;;1.50;99.90;;;;;;5052911;28;20092;-84
2022/12/21 01:44:44;;;;;;;23.07;15.23;;;1.60;99.90;;;;;;5040058;28;20192;-85
2022/12/21 01:47:14;;;;;;;21.43;14.33;;;1.50;99.90;;;;;;5004295;28;20049;-85
2022/12/21 01:49:40;;;;;;;21.17;13.60;;;1.60;99.90;;;;;;5015899;28;20030;-84
2022/12/21 01:52:10;;;;;;;19.73;12.47;;;1.60;99.90;;;;;;5039920;28;20025;-85
2022/12/21 01:54:42;;;;;;;18.07;11.93;;;1.60;99.90;;;;;;5033567;28;20037;-86
2022/12/21 01:57:09;;;;;;;16.43;10.70;;;1.60;99.90;;;;;;5003628;28;20030;-85
2022/12/21 01:59:39;;;;;;;15.97;9.90;;;1.70;99.90;;;;;;5033029;28;20119;-85
2022/12/21 02:02:09;;;;;;;17.17;11.37;;;1.80;99.90;;;;;;5030760;28;20033;-85
2022/12/21 02:04:35;;;;;;;15.07;10.43;;;1.80;99.90;;;;;;5033026;28;20021;-86
2022/12/21 02:07:01;;;;;;;15.60;10.43;;;1.80;99.90;;;;;;5032989;28;20078;-85
2022/12/21 02:09:30;;;;;;;18.80;11.20;;;1.80;99.90;;;;;;5032982;28;20032;-86
2022/12/21 02:11:59;;;;;;;14.77;10.90;;;1.80;99.90;;;;;;5017156;28;20382;-85
2022/12/21 02:14:27;;;;;;;15.87;10.17;;;1.80;99.90;;;;;;5017288;28;20379;-86
2022/12/21 02:17:14;;;;;;;14.10;8.90;;;1.70;99.90;;;;;;5036155;28;20343;-86
2022/12/21 02:20:09;;;;;;;15.10;9.73;;;1.80;99.90;;;;;;5035905;28;20021;-86
2022/12/21 02:22:56;;;;;;;16.33;9.10;;;1.80;99.90;;;;;;5019305;28;20482;-86
2022/12/21 02:25:40;;;;;;;11.27;8.17;;;1.90;99.90;;;;;;5036876;28;20260;-86
2022/12/21 02:28:43;;;;;;;12.97;9.03;;;2.00;99.90;;;;;;5015343;28;20017;-86
2022/12/21 02:31:12;;;;;;;14.77;8.63;;;2.00;99.90;;;;;;5020841;28;20083;-86
2022/12/21 02:34:15;;;;;;;13.27;8.30;;;1.90;99.90;;;;;;5036903;28;20030;-86
2022/12/21 02:37:07;;;;;;;11.83;7.53;;;1.90;99.90;;;;;;4956816;29;20027;-86
2022/12/21 02:39:49;;;;;;;9.87;7.10;;;2.00;99.90;;;;;;5016462;28;20033;-86
2022/12/21 02:56:18;;;;;;;11.73;7.70;;;1.90;99.90;;;;;;5024917;28;20191;-86
2022/12/21 02:58:45;;;;;;;11.57;7.30;;;1.90;99.90;;;;;;5018958;28;20030;-86
2022/12/21 03:01:50;;;;;;;10.23;7.07;;;1.90;99.90;;;;;;5036656;28;20068;-87
2022/12/21 03:04:43;;;;;;;12.73;7.30;;;1.90;99.90;;;;;;5029139;28;20021;-86
2022/12/21 03:07:35;;;;;;;12.40;6.53;;;1.90;99.90;;;;;;4999525;28;20033;-86
2022/12/21 03:10:22;;;;;;;11.87;7.80;;;1.90;99.90;;;;;;5011647;28;20021;-87
2022/12/21 03:13:14;;;;;;;14.00;8.90;;;1.90;99.90;;;;;;4998881;28;20459;-86
2022/12/21 03:16:19;;;;;;;16.47;9.17;;;1.80;99.90;;;;;;5015190;28;20455;-85
2022/12/21 03:18:48;;;;;;;12.43;8.10;;;1.80;99.90;;;;;;5001684;28;20076;-86
2022/12/21 03:21:31;;;;;;;13.87;8.00;;;1.80;99.90;;;;;;5035376;28;20025;-86
2022/12/21 03:24:06;;;;;;;12.47;6.90;;;1.80;99.90;;;;;;5018205;28;20489;-86
2022/12/21 03:26:49;;;;;;;;;;;1.70;99.90;;;;;;5032771;28;20350;-86
2022/12/21 03:29:20;;;;;;;10.97;7.10;;;1.70;99.90;;;;;;4978785;28;19909;-85
2022/12/21 03:31:52;;;;;;;13.03;8.27;;;1.70;99.90;;;;;;4978969;28;20030;-86
2022/12/21 03:34:20;;;;;;;12.13;7.30;;;1.70;99.90;;;;;;4978576;28;20057;-86
2022/12/21 03:36:59;;;;;;;12.47;7.33;;;1.70;99.90;;;;;;4979637;28;20030;-86
2022/12/21 03:39:27;;;;;;;11.47;7.10;;;1.80;99.90;;;;;;4979316;28;20026;-86
2022/12/21 03:42:08;;;;;;;13.87;8.00;;;1.80;99.90;;;;;;4978775;28;20022;-86
2022/12/21 03:44:47;;;;;;;12.43;8.50;;;1.80;99.90;;;;;;4978732;28;20022;-87
2022/12/21 03:47:17;;;;;;;11.10;7.10;;;1.80;99.90;;;;;;4996280;28;20103;-86
2022/12/21 03:49:54;;;;;;;14.13;7.50;;;1.80;99.90;;;;;;4978559;28;20526;-86
2022/12/21 03:52:25;;;;;;;11.13;6.20;;;1.90;99.90;;;;;;4978769;28;20033;-86
2022/12/21 03:55:04;;;;;;;9.53;5.63;;;1.90;99.90;;;;;;4985674;28;20101;-89
2022/12/21 03:57:31;;;;;;;9.53;6.40;;;1.90;99.90;;;;;;4998986;28;20022;-91
2022/12/21 03:59:59;;;;;;;8.70;7.20;;;1.90;99.90;;;;;;5016618;28;20345;-91
2022/12/21 04:02:37;;;;;;;9.30;6.40;;;1.90;99.90;;;;;;5016180;28;20160;-91
2022/12/21 04:05:14;;;;;;;12.10;6.03;;;1.90;99.90;;;;;;4999350;28;20018;-91
2022/12/21 04:07:42;;;;;;;13.27;6.73;;;1.90;99.90;;;;;;5031148;28;20037;-91
2022/12/21 04:10:13;;;;;;;7.97;6.20;;;1.90;99.90;;;;;;5036938;28;20041;-91
2022/12/21 04:12:41;;;;;;;10.13;5.70;;;1.90;99.90;;;;;;5036948;28;20025;-91
2022/12/21 04:15:08;;;;;;;13.27;6.20;;;1.80;99.90;;;;;;5018082;28;20506;-91
2022/12/21 04:17:33;;;;;;;12.30;6.73;;;1.90;99.90;;;;;;5036296;28;20104;-91
2022/12/21 04:19:59;;;;;;;13.67;6.50;;;1.80;99.90;;;;;;5041341;28;20335;-91
2022/12/21 04:28:09;;;;;;;13.80;7.33;;;1.90;99.90;;;;;;5035617;28;20085;-91
2022/12/21 04:30:43;;;;;;;9.93;6.20;;;1.90;99.90;;;;;;5018652;28;20025;-89
2022/12/21 04:33:15;;;;;;;13.50;7.13;;;1.90;99.90;;;;;;5033672;28;20478;-90
2022/12/21 04:38:32;;;;;;;11.10;7.23;;;1.80;99.90;;;;;;5035435;28;20064;-90
2022/12/21 04:41:01;;;;;;;12.83;7.27;;;1.90;99.90;;;;;;5018999;28;20017;-91
2022/12/21 04:43:29;;;;;;;12.70;7.33;;;1.90;99.90;;;;;;5036943;28;20048;-90
2022/12/21 04:46:07;;;;;;;11.10;6.77;;;1.90;99.90;;;;;;5026173;28;20029;-90
2022/12/21 04:48:35;;;;;;;10.93;7.43;;;1.90;99.90;;;;;;5050491;28;20090;-90
2022/12/21 04:51:06;;;;;;;17.77;8.20;;;1.90;99.90;;;;;;5036233;28;20018;-89
2022/12/21 04:53:34;;;;;;;12.40;8.17;;;1.90;99.90;;;;;;5033544;28;20033;-90
2022/12/21 04:56:03;;;;;;;12.60;7.90;;;1.90;99.90;;;;;;5023409;28;20091;-90
2022/12/21 04:58:29;;;;;;;14.53;7.67;;;1.90;99.90;;;;;;5026996;28;20116;-90
2022/12/21 05:00:56;;;;;;;11.03;7.17;;;2.00;99.90;;;;;;5034893;28;20112;-91
2022/12/21 05:03:22;;;;;;;15.40;6.90;;;1.90;99.90;;;;;;5021167;28;20175;-90
2022/12/21 05:05:50;;;;;;;15.50;7.53;;;2.00;99.90;;;;;;5047775;28;20029;-90
2022/12/21 05:08:21;;;;;;;15.50;7.80;;;2.00;99.90;;;;;;5035597;28;20128;-90
2022/12/21 05:10:49;;;;;;;17.20;7.30;;;2.00;99.90;;;;;;5021071;28;20037;-89
2022/12/21 05:13:15;;;;;;;14.80;6.97;;;2.00;99.90;;;;;;5017867;28;20467;-90
2022/12/21 05:15:40;;;;;;;13.23;7.40;;;2.00;99.90;;;;;;5023344;28;20419;-90
2022/12/21 05:18:11;;;;;;;19.40;7.77;;;2.00;99.90;;;;;;5046111;28;20034;-90
2022/12/21 05:20:37;;;;;;;10.17;6.50;;;2.00;99.90;;;;;;5023864;28;20059;-90
2022/12/21 05:23:04;;;;;;;13.17;6.67;;;2.00;99.90;;;;;;5044872;28;20029;-90
2022/12/21 05:25:31;;;;;;;11.93;6.90;;;2.00;99.90;;;;;;5026091;28;20028;-90
2022/12/21 05:27:57;;;;;;;12.23;6.83;;;2.00;99.90;;;;;;5020307;28;20049;-89
2022/12/21 05:30:25;;;;;;;15.73;7.87;;;2.00;99.90;;;;;;5042206;28;20417;-89
2022/12/21 05:32:52;;;;;;;17.43;7.87;;;2.00;99.90;;;;;;5029405;28;20063;-89
2022/12/21 05:35:18;;;;;;;13.17;7.17;;;2.00;99.90;;;;;;5031588;28;20029;-89
2022/12/21 05:37:45;;;;;;;13.20;7.30;;;2.00;99.90;;;;;;5027204;28;20029;-89
2022/12/21 05:40:12;;;;;;;16.70;7.13;;;2.00;99.90;;;;;;5024378;28;20021;-90
2022/12/21 05:42:39;;;;;;;14.93;7.43;;;2.00;99.90;;;;;;5042594;28;20048;-90
2022/12/21 05:45:06;;;;;;;12.93;6.60;;;1.90;99.90;;;;;;5017306;28;20035;-89
2022/12/21 05:47:34;;;;;;;11.73;6.17;;;2.00;99.90;;;;;;5026097;28;20025;-90
2022/12/21 05:50:00;;;;;;;15.20;7.00;;;2.00;99.90;;;;;;5012077;28;20084;-90
2022/12/21 05:52:27;;;;;;;17.93;7.37;;;2.00;99.90;;;;;;5033866;28;20037;-90
2022/12/21 05:54:56;;;;;;;10.50;6.63;;;2.00;99.90;;;;;;5019771;28;20434;-89
2022/12/21 05:57:22;;;;;;;9.83;6.50;;;2.00;99.90;;;;;;5001989;28;20538;-89
2022/12/21 05:59:48;;;;;;;21.63;7.10;;;2.00;99.90;;;;;;5050496;28;20047;-89
2022/12/21 06:02:14;;;;;;;15.10;6.40;;;2.00;99.90;;;;;;5039889;28;20120;-84
2022/12/21 06:04:40;;;;;;;12.17;6.80;;;2.00;99.90;;;;;;5040236;28;20183;-84
2022/12/21 06:07:05;;;;;;;12.40;6.33;;;2.00;99.90;;;;;;5032352;28;20045;-84
2022/12/21 06:09:31;;;;;;;11.73;6.40;;;2.00;99.90;;;;;;5032436;28;20108;-83
2022/12/21 06:11:56;;;;;;;11.40;6.37;;;2.00;99.90;;;;;;5043623;28;20377;-84
2022/12/21 06:14:22;;;;;;;16.13;7.43;;;2.00;99.90;;;;;;5032205;28;20458;-84
2022/12/21 06:16:47;;;;;;;17.27;6.83;;;2.00;99.90;;;;;;5032360;28;20314;-85
2022/12/21 06:19:13;;;;;;;18.70;6.73;;;2.00;99.90;;;;;;5032207;28;20046;-85
2022/12/21 06:21:38;;;;;;;14.20;6.67;;;2.00;99.90;;;;;;5032169;28;20029;-85
2022/12/21 06:24:04;;;;;;;22.90;7.40;;;2.10;99.90;;;;;;5037943;28;20084;-86
2022/12/21 06:26:30;;;;;;;13.70;6.23;;;2.10;99.90;;;;;;5033085;28;20036;-90
2022/12/21 06:28:55;;;;;;;18.37;7.00;;;2.10;99.90;;;;;;5014303;28;20065;-91
2022/12/21 06:31:22;;;;;;;14.10;7.20;;;2.10;99.90;;;;;;5024145;28;20029;-89
2022/12/21 06:33:48;;;;;;;15.93;6.63;;;2.10;99.90;;;;;;5050197;28;20025;-90
2022/12/21 06:36:14;;;;;;;16.40;6.77;;;2.10;99.90;;;;;;5020803;28;20026;-90
2022/12/21 06:38:40;;;;;;;16.53;6.87;;;2.10;99.90;;;;;;5030969;28;20060;-90
2022/12/21 06:41:09;;;;;;;21.63;7.43;;;2.10;99.90;;;;;;5035436;28;20025;-90
2022/12/21 06:43:36;;;;;;;22.07;8.47;;;2.10;99.90;;;;;;5026422;28;20064;-89
2022/12/21 06:46:05;;;;;;;22.27;8.23;;;2.20;99.90;;;;;;5030694;28;20095;-89
2022/12/21 06:48:32;;;;;;;17.20;8.00;;;2.20;99.90;;;;;;5031023;28;20035;-90
2022/12/21 06:51:00;;;;;;;17.27;8.23;;;2.20;99.90;;;;;;5018170;28;20458;-90
2022/12/21 06:53:29;;;;;;;22.53;9.43;;;2.30;99.90;;;;;;5032143;28;20018;-90
2022/12/21 06:56:03;;;;;;;17.20;8.10;;;2.30;99.90;;;;;;5032618;28;20022;-88
2022/12/21 06:58:29;;;;;;;17.53;8.20;;;2.40;99.90;;;;;;5039575;28;20033;-90
2022/12/21 07:00:55;;;;;;;19.00;8.93;;;2.60;99.90;;;;;;5034006;28;20482;-89
2022/12/21 07:03:21;;;;;;;22.63;10.03;;;2.70;99.90;;;;;;5020671;28;20060;-90
2022/12/21 07:05:50;;;;;;;24.33;10.20;;;2.80;99.90;;;;;;5033200;28;20025;-90
2022/12/21 07:08:16;;;;;;;22.97;9.13;;;2.90;99.90;;;;;;5017908;28;20132;-90
2022/12/21 07:10:42;;;;;;;15.73;8.10;;;2.90;99.90;;;;;;5019306;28;20091;-90
2022/12/21 07:13:07;;;;;;;12.70;6.83;;;2.90;99.90;;;;;;5032530;28;20034;-90
2022/12/21 07:15:34;;;;;;;13.70;7.43;;;2.80;99.90;;;;;;5032780;28;20071;-90
2022/12/21 07:18:00;;;;;;;14.57;6.77;;;2.80;99.90;;;;;;5030506;28;20026;-90
2022/12/21 07:20:25;;;;;;;17.30;6.70;;;2.80;99.90;;;;;;5032427;28;20030;-89
2022/12/21 07:22:51;;;;;;;18.67;7.30;;;2.80;99.90;;;;;;5031664;28;20021;-90
2022/12/21 07:25:17;;;;;;;16.00;7.90;;;2.90;99.90;;;;;;5032840;28;20024;-89
2022/12/21 07:27:42;;;;;;;16.70;7.00;;;3.00;99.90;;;;;;5027189;28;20605;-89
2022/12/21 07:30:08;;;;;;;16.87;7.53;;;3.20;99.90;;;;;;5032308;28;20042;-88
2022/12/21 07:32:34;;;;;;;14.00;7.03;;;3.30;99.90;;;;;;5030278;28;20030;-88
2022/12/21 07:35:00;;;;;;;15.67;6.77;;;3.40;99.90;;;;;;5032196;28;20029;-88
2022/12/21 07:37:25;;;;;;;18.57;7.70;;;3.50;99.90;;;;;;5016287;28;20437;-88
2022/12/21 07:39:51;;;;;;;23.33;9.20;;;3.60;99.90;;;;;;5030934;28;20090;-88
2022/12/21 07:42:16;;;;;;;16.07;7.00;;;3.70;99.90;;;;;;5031338;28;20033;-88
2022/12/21 07:44:42;;;;;;;15.23;6.13;;;3.80;99.90;;;;;;5032778;28;20071;-86
2022/12/21 07:47:08;;;;;;;20.73;6.37;;;3.90;99.90;;;;;;5034063;28;20075;-87
2022/12/21 07:49:34;;;;;;;17.17;6.50;;;3.90;99.90;;;;;;5032578;28;20031;-87
2022/12/21 07:52:00;;;;;;;14.00;5.63;;;4.00;99.90;;;;;;5031306;28;20047;-87
2022/12/21 07:54:25;;;;;;;15.20;6.90;;;4.00;99.90;;;;;;5032882;28;20117;-88
2022/12/21 07:56:51;;;;;;;11.80;6.23;;;4.00;99.90;;;;;;5039386;28;20099;-88
2022/12/21 07:59:17;;;;;;;13.73;6.30;;;4.00;99.90;;;;;;5033665;28;20060;-88
2022/12/21 08:01:42;;;;;;;15.23;5.63;;;4.10;99.90;;;;;;5043133;28;20323;-89
2022/12/21 08:04:08;;;;;;;11.70;5.73;;;4.20;99.90;;;;;;5034065;28;20030;-89
2022/12/21 08:06:34;;;;;;;10.50;5.10;;;4.20;99.90;;;;;;5039728;28;20040;-89
2022/12/21 08:09:00;;;;;;;11.77;5.57;;;4.30;99.90;;;;;;5030682;28;20079;-88
2022/12/21 08:11:28;;;;;;;11.77;5.67;;;4.30;99.90;;;;;;5033588;28;20465;-88
2022/12/21 08:13:54;;;;;;;11.13;5.83;;;4.40;99.90;;;;;;5033739;28;20052;-88
2022/12/21 08:16:20;;;;;;;13.17;6.03;;;4.40;99.90;;;;;;5031932;28;20455;-88
2022/12/21 08:18:48;;;;;;;16.97;6.07;;;4.50;99.90;;;;;;5037923;28;20033;-89
2022/12/21 08:21:15;;;;;;;13.83;6.43;;;4.50;99.90;;;;;;5035624;28;20038;-89
2022/12/21 08:23:41;;;;;;;14.93;6.57;;;4.50;99.90;;;;;;5032618;28;20021;-89
2022/12/21 08:26:10;;;;;;;10.97;5.27;;;4.50;99.90;;;;;;5033241;28;20029;-90
2022/12/21 08:28:35;;;;;;;20.57;6.37;;;4.60;99.90;;;;;;5033251;28;20037;-90
2022/12/21 08:31:02;;;;;;;18.37;7.33;;;4.60;99.90;;;;;;5032441;28;20037;-90
2022/12/21 08:33:27;;;;;;;20.33;10.60;;;4.60;99.90;;;;;;5032732;28;20025;-90
2022/12/21 08:35:53;;;;;;;15.07;8.43;;;4.70;99.90;;;;;;5033852;28;20506;-89
2022/12/21 08:38:18;;;;;;;13.40;7.30;;;4.70;99.90;;;;;;5033139;28;20378;-89
2022/12/21 08:40:44;;;;;;;15.80;5.67;;;4.70;99.90;;;;;;5037517;28;20482;-90
2022/12/21 08:43:10;;;;;;;12.00;6.23;;;4.70;99.90;;;;;;5012869;28;20025;-89
2022/12/21 08:45:35;;;;;;;12.93;5.77;;;4.70;99.90;;;;;;5039467;28;20022;-89
2022/12/21 08:48:01;;;;;;;14.33;6.83;;;4.80;99.90;;;;;;5034395;28;20108;-89
2022/12/21 08:50:27;;;;;;;17.33;6.90;;;4.80;99.90;;;;;;5027122;28;20033;-89
2022/12/21 08:52:52;;;;;;;16.53;7.37;;;4.70;99.90;;;;;;5031675;28;20036;-89
2022/12/21 08:55:18;;;;;;;16.43;7.17;;;4.70;99.90;;;;;;5029059;28;20025;-89
2022/12/21 08:57:43;;;;;;;17.40;7.00;;;4.70;99.90;;;;;;5017093;28;20486;-90
2022/12/21 09:00:09;;;;;;;22.13;10.17;;;4.60;99.90;;;;;;5032760;28;20017;-90
2022/12/21 09:02:36;;;;;;;14.87;8.73;;;4.60;99.90;;;;;;5013308;28;20525;-90
2022/12/21 09:05:01;;;;;;;15.00;9.13;;;4.60;99.90;;;;;;5030709;28;20025;-89
2022/12/21 09:07:29;;;;;;;23.17;8.67;;;4.70;99.90;;;;;;5033242;28;20056;-89
2022/12/21 09:09:55;;;;;;;15.57;7.10;;;4.70;99.90;;;;;;5033047;28;20072;-90
2022/12/21 09:12:21;;;;;;;13.57;6.87;;;4.70;99.90;;;;;;5033159;28;20022;-89
2022/12/21 09:14:46;;;;;;;12.13;6.77;;;4.70;99.90;;;;;;5033202;28;20455;-89
2022/12/21 09:17:12;;;;;;;16.17;7.00;;;4.80;99.90;;;;;;5017440;28;20030;-89
2022/12/21 09:19:39;;;;;;;14.07;6.53;;;4.80;99.90;;;;;;5035638;28;20045;-89
2022/12/21 09:22:05;;;;;;;12.43;6.40;;;4.70;99.90;;;;;;5032398;28;20025;-89
2022/12/21 09:24:31;;;;;;;14.10;7.00;;;4.80;99.90;;;;;;5032985;28;20083;-89
2022/12/21 09:26:57;;;;;;;15.33;10.57;;;4.80;99.90;;;;;;5033000;28;20104;-89
2022/12/21 09:29:50;;;;;;;17.30;9.83;;;4.80;99.90;;;;;;5039589;28;20029;-89
2022/12/21 09:32:16;;;;;;;15.93;9.40;;;4.80;99.90;;;;;;5030149;28;20033;-89
2022/12/21 09:34:41;;;;;;;15.27;8.70;;;4.80;99.90;;;;;;5033149;28;20491;-89
2022/12/21 09:37:07;;;;;;;15.07;6.43;;;4.70;99.90;;;;;;5038588;28;20564;-89
2022/12/21 09:39:33;;;;;;;14.63;6.37;;;4.70;99.90;;;;;;5033084;28;20026;-89
2022/12/21 09:42:09;;;;;;;12.70;6.40;;;4.70;99.90;;;;;;5038805;28;20100;-89
2022/12/21 09:44:41;;;;;;;12.47;7.17;;;4.70;99.90;;;;;;5029806;28;20018;-89
2022/12/21 09:47:17;;;;;;;15.10;7.93;;;4.70;99.90;;;;;;5031315;28;20029;-89
2022/12/21 09:49:55;;;;;;;14.67;7.37;;;4.70;99.90;;;;;;5035199;28;20025;-90
2022/12/21 09:52:31;;;;;;;10.80;6.17;;;4.70;99.90;;;;;;5038969;28;20028;-89
2022/12/21 09:55:04;;;;;;;15.27;7.80;;;4.80;99.90;;;;;;5033206;28;20017;-89
2022/12/21 09:57:34;;;;;;;18.97;7.50;;;4.80;99.90;;;;;;5031796;28;20025;-88
2022/12/21 10:00:00;;;;;;;13.27;7.70;;;4.90;99.90;;;;;;5036671;28;20026;-88
2022/12/21 10:02:54;;;;;;;16.60;8.20;;;4.90;99.90;;;;;;5034862;28;20156;-88
2022/12/21 10:05:29;;;;;;;11.60;8.50;;;5.00;99.90;;;;;;5032858;28;20068;-88
2022/12/21 10:08:33;;;;;;;12.95;7.63;;;5.00;99.90;;;;;;5032415;28;20100;-88
2022/12/21 10:11:29;;;;;;;14.50;7.33;;;5.00;99.90;;;;;;5033325;28;20017;-89
2022/12/21 10:14:02;;;;;;;15.07;7.40;;;5.00;99.90;;;;;;5039094;28;20032;-89
2022/12/21 10:16:50;;;;;;;15.60;7.17;;;5.00;99.90;;;;;;5031972;28;20040;-89
2022/12/21 10:19:35;;;;;;;11.63;7.37;;;5.10;99.90;;;;;;5030149;28;20026;-89
2022/12/21 10:22:08;;;;;;;13.57;7.17;;;5.10;99.90;;;;;;5036711;28;20107;-89
2022/12/21 10:24:42;;;;;;;15.93;7.23;;;5.20;99.90;;;;;;5030162;28;20021;-89
2022/12/21 10:27:19;;;;;;;10.53;6.33;;;5.30;99.90;;;;;;5030244;28;20052;-90
2022/12/21 10:29:50;;;;;;;14.50;6.50;;;5.40;99.90;;;;;;5029761;28;20033;-90
2022/12/21 10:32:15;;;;;;;11.83;5.50;;;5.40;99.90;;;;;;5029118;28;20144;-90
2022/12/21 10:34:47;;;;;;;11.43;5.93;;;5.50;99.90;;;;;;5034862;28;21003;-90
2022/12/21 10:37:16;;;;;;;11.00;6.00;;;5.60;99.90;;;;;;5032088;28;20025;-90
2022/12/21 10:39:43;;;;;;;11.23;5.47;;;5.70;99.90;;;;;;5039249;28;20486;-90
2022/12/21 10:42:21;;;;;;;10.30;4.97;;;5.80;99.90;;;;;;5024676;28;20021;-91
2022/12/21 10:44:50;;;;;;;12.17;5.23;;;5.90;99.90;;;;;;5022222;28;20580;-92
2022/12/21 10:47:19;;;;;;;8.27;5.03;;;6.00;99.90;;;;;;5034190;28;20431;-90
2022/12/21 10:49:54;;;;;;;10.80;5.60;;;6.00;99.90;;;;;;5018805;28;20013;-90
2022/12/21 10:52:32;;;;;;;;;;;6.00;99.90;;;;;;5034475;28;20014;-90
2022/12/21 10:54:58;;;;;;;8.80;4.77;;;6.00;99.90;;;;;;5044871;28;19909;-91
2022/12/21 10:57:32;;;;;;;8.43;4.20;;;6.00;99.90;;;;;;5038141;28;20032;-91
2022/12/21 11:00:03;;;;;;;14.57;4.53;;;6.00;99.90;;;;;;5040781;28;20021;-91
2022/12/21 11:02:37;;;;;;;9.03;3.90;;;6.00;99.90;;;;;;5034897;28;20124;-91
2022/12/21 11:05:03;;;;;;;10.77;4.40;;;6.00;99.90;;;;;;5040597;28;20911;-90
2022/12/21 11:07:30;;;;;;;9.10;4.50;;;5.90;99.90;;;;;;5042030;28;20041;-90
2022/12/21 11:10:02;;;;;;;12.80;4.97;;;6.00;99.90;;;;;;5033979;28;20025;-85
2022/12/21 11:12:28;;;;;;;10.13;4.63;;;5.90;99.90;;;;;;5036066;28;20028;-89
2022/12/21 11:14:54;;;;;;;8.57;4.60;;;5.90;99.90;;;;;;5030601;28;20021;-84
2022/12/21 11:17:27;;;;;;;12.77;5.40;;;5.90;99.90;;;;;;5033255;28;20385;-85
2022/12/21 11:20:13;;;;;;;14.53;4.97;;;5.90;99.90;;;;;;5034395;28;20025;-85
2022/12/21 11:22:43;;;;;;;12.17;5.53;;;5.90;99.90;;;;;;5060293;28;20036;-84
2022/12/21 11:25:15;;;;;;;9.90;5.20;;;6.00;99.90;;;;;;5036047;28;20550;-85
2022/12/21 11:27:45;;;;;;;14.83;5.70;;;6.00;99.90;;;;;;5033137;28;20041;-84
2022/12/21 11:30:31;;;;;;;12.33;4.67;;;6.00;99.90;;;;;;5028131;28;20021;-84
2022/12/21 11:32:59;;;;;;;10.93;4.50;;;6.10;99.90;;;;;;5036005;28;20025;-84
2022/12/21 11:35:34;;;;;;;10.70;4.13;;;6.10;99.90;;;;;;5037812;28;20079;-84
2022/12/21 11:38:09;;;;;;;12.40;4.83;;;6.10;99.90;;;;;;5035641;28;20051;-84
2022/12/21 11:40:35;;;;;;;10.07;4.93;;;6.10;99.90;;;;;;5034164;28;20030;-84
2022/12/21 11:43:02;;;;;;;9.50;4.50;;;6.10;99.90;;;;;;5028493;28;20041;-83
2022/12/21 11:45:46;;;;;;;22.20;4.50;;;6.10;99.90;;;;;;5031112;28;20056;-84
2022/12/21 11:48:27;;;;;;;9.47;6.13;;;6.10;99.90;;;;;;5023305;28;20028;-84
2022/12/21 11:50:58;;;;;;;19.63;9.20;;;6.10;99.90;;;;;;5019122;28;20037;-84
2022/12/21 11:53:52;;;;;;;27.80;10.47;;;6.10;99.90;;;;;;5026693;28;20036;-84
2022/12/21 11:56:34;;;;;;;17.20;9.03;;;6.10;99.90;;;;;;5034043;28;20021;-84
2022/12/21 11:59:23;;;;;;;17.07;8.43;;;6.00;99.90;;;;;;5037321;28;20060;-84
2022/12/21 12:02:08;;;;;;;14.47;5.87;;;5.90;99.90;;;;;;5001475;28;20045;-84
2022/12/21 12:05:00;;;;;;;12.13;5.05;;;5.90;99.90;;;;;;5034141;28;20013;-84
2022/12/21 12:07:42;;;;;;;10.70;4.80;;;5.90;99.90;;;;;;5032371;28;20482;-84
2022/12/21 12:10:23;;;;;;;13.00;4.90;;;5.80;99.90;;;;;;5033329;28;20052;-84
2022/12/21 12:13:07;;;;;;;10.90;4.87;;;5.80;99.90;;;;;;5030708;28;20029;-84
2022/12/21 12:16:06;;;;;;;7.27;4.47;;;5.80;99.90;;;;;;5030444;28;20025;-84
2022/12/21 12:18:47;;;;;;;10.17;4.43;;;5.80;99.90;;;;;;5002795;28;20724;-84
2022/12/21 12:21:30;;;;;;;11.80;4.97;;;5.70;99.90;;;;;;5021921;28;20030;-84
2022/12/21 12:24:13;;;;;;;9.03;4.83;;;5.60;99.90;;;;;;5036806;28;20014;-84
2022/12/21 12:26:50;;;;;;;11.27;5.40;;;5.60;99.90;;;;;;5038013;28;20182;-84
2022/12/21 12:29:22;;;;;;;12.97;5.50;;;5.60;99.90;;;;;;5031379;28;20501;-85
2022/12/21 12:32:38;;;;;;;13.90;6.57;;;5.50;99.90;;;;;;5032151;28;20044;-85
2022/12/21 12:35:30;;;;;;;14.07;6.20;;;5.50;99.90;;;;;;4933731;29;20023;-85
2022/12/21 12:38:09;;;;;;;16.03;6.47;;;5.50;99.90;;;;;;5022446;28;20033;-85
2022/12/21 12:40:56;;;;;;;13.20;7.10;;;5.50;99.90;;;;;;5031427;28;20041;-85
2022/12/21 12:43:40;;;;;;;18.27;7.30;;;5.50;99.90;;;;;;5031186;28;20021;-85
2022/12/21 12:46:18;;;;;;;14.03;8.83;;;5.60;99.90;;;;;;5028546;28;20136;-85
2022/12/21 12:48:53;;;;;;;11.87;8.23;;;5.60;99.90;;;;;;5036834;28;20028;-85
2022/12/21 12:51:28;;;;;;;11.35;7.15;;;5.70;99.90;;;;;;5048284;28;20092;-85
2022/12/21 12:54:08;;;;;;;19.08;9.43;;;5.70;99.90;;;;;;5034273;28;20040;-85
2022/12/21 12:56:34;;;;;;;17.27;9.20;;;5.70;99.90;;;;;;5019029;28;21016;-85
2022/12/21 12:59:16;;;;;;;15.30;8.53;;;5.80;99.90;;;;;;5033282;28;20107;-85
2022/12/21 13:01:56;;;;;;;13.60;9.77;;;5.80;99.90;;;;;;5029281;28;20018;-85
2022/12/21 13:04:25;;;;;;;14.23;9.17;;;5.80;99.90;;;;;;5039937;28;20444;-85
2022/12/21 13:07:07;;;;;;;14.73;8.73;;;5.80;99.90;;;;;;5032102;28;20135;-85
2022/12/21 13:09:58;;;;;;;17.33;9.73;;;5.90;99.90;;;;;;5031979;28;20024;-85
2022/12/21 13:12:45;;;;;;;15.77;8.40;;;5.90;99.90;;;;;;5031601;28;20021;-85
2022/12/21 13:15:26;;;;;;;15.77;7.53;;;5.90;99.90;;;;;;5031226;28;20922;-85
2022/12/21 13:18:08;;;;;;;11.00;6.03;;;6.00;99.90;;;;;;5016722;28;20112;-85
2022/12/21 13:20:35;;;;;;;19.10;6.67;;;6.00;99.90;;;;;;5031127;28;20017;-85
2022/12/21 13:23:10;;;;;;;13.23;5.00;;;6.00;99.90;;;;;;5033465;28;20044;-86
2022/12/21 13:25:52;;;;;;;11.23;5.20;;;6.10;99.90;;;;;;5032403;28;20022;-85
2022/12/21 13:28:28;;;;;;;8.17;5.17;;;6.20;99.90;;;;;;5035169;28;20091;-85
2022/12/21 13:30:58;;;;;;;10.03;5.03;;;6.30;99.90;;;;;;5035996;28;20435;-86